Norwegian Sky — C6PZ8 — position and weather

sailwx.info

Track history (hours):
 
Tides and Currents Weather Stations Pressure Air Temp Water Temp Dewpoint Dewpoint Depression Visibility Wind Speed Wind Dir Waves Ship Positions

Norwegian Sky (Norway)

Operator: Norwegian Cruise Line

Last reported at 2019-Nov-20 03:27 UTC. Time now 2019-Nov-20 09:30 UTC.
Position N 25°19' W 079°47'.

Length 258 m; draft 8 m.

Type: Ship. MMSI: 308865000.

Date/timePositionNaut miles runAvg speedWind from/ knotsBaromVisibWave heightAir tempDewpointWater temp
2019-Nov-20 03:27N 25°19' W 079°47'1718.2
2019-Nov-20 02:30N 25°34' W 079°39'76 8.9
2019-Nov-19 18:00N 26°30' W 078°42'   270 / 121013.027.0 24.0
2019-Nov-17 04:02N 26°11' W 079°20'1 8.8
2019-Nov-17 03:58N 26°11' W 079°20'4 9.2
2019-Nov-17 03:30N 26°08' W 079°24'19 9.4
2019-Nov-17 01:30N 25°57' W 079°41'28 7.0
2019-Nov-16 21:29N 25°47' W 080°10'0 0.0
2019-Nov-16 20:29N 25°47' W 080°10'0 0.0
2019-Nov-16 19:29N 25°47' W 080°10'0 0.0
2019-Nov-16 18:59N 25°47' W 080°10'0 0.0
2019-Nov-16 18:29N 25°47' W 080°10'0 0.0
2019-Nov-16 17:29N 25°47' W 080°10'611.7
2019-Nov-16 17:00N 25°42' W 080°06'61231.8 290 / 111011.027.0 23.0
2019-Nov-16 16:59N 25°47' W 080°10'0 0.0
2019-Nov-16 15:59N 25°47' W 080°10'0 0.0
2019-Nov-16 15:29N 25°47' W 080°10'6 1.7
2019-Nov-16 12:00N 25°42' W 080°06'15 3.4 330 / 111013.010.8 19.015.920.0
2019-Nov-16 07:31N 25°51' W 079°52'9 8.7
2019-Nov-16 06:31N 25°55' W 079°44'26 8.6
2019-Nov-16 03:31N 26°07' W 079°19'4 8.7
2019-Nov-16 03:01N 26°10' W 079°15'8 8.3
2019-Nov-16 02:05N 26°12' W 079°07'70 7.6
2019-Nov-15 17:00N 25°48' W 077°54'58 2.5 230 / 81016.0 27.0
2019-Nov-14 18:00N 25°00' W 077°18'124 5.3 060 / 71017.010.8 28.0
2019-Nov-13 18:22N 26°02' W 079°17'410.0
2019-Nov-13 18:00N 25°59' W 079°19'2512.3
2019-Nov-13 16:00N 25°36' W 079°29'2012.8
2019-Nov-13 14:28N 25°17' W 079°34'130 6.3
2019-Nov-12 18:00N 24°30' W 081°48'114 6.3 130 / 81013.0 28.0
2019-Nov-12 00:00N 25°28' W 079°60'21 8.4
2019-Nov-11 21:30N 25°47' W 080°10'0 0.0
2019-Nov-11 21:00N 25°47' W 080°10'0 0.0
2019-Nov-11 18:30N 25°47' W 080°10'611.3
2019-Nov-11 18:00N 25°42' W 080°06'612.0 090 / 121017.0 27.0
2019-Nov-11 17:30N 25°47' W 080°10'0 0.0
2019-Nov-11 16:57N 25°47' W 080°10'0 0.0
2019-Nov-11 16:30N 25°47' W 080°10'0 0.0
2019-Nov-11 15:00N 25°47' W 080°10'0 0.0
2019-Nov-11 13:00N 25°47' W 080°10'0 0.0
2019-Nov-11 12:00N 25°47' W 080°10'0 0.0
2019-Nov-11 10:30N 25°47' W 080°10'10 6.4
2019-Nov-11 09:01N 25°47' W 079°59'20 6.8
2019-Nov-11 06:00N 25°36' W 079°40'4 8.5
2019-Nov-11 05:30N 25°32' W 079°39'8 0.9
2019-Nov-10 20:38N 25°28' W 079°32'17 8.0
2019-Nov-10 18:30N 25°44' W 079°36'19 7.6
2019-Nov-10 16:00N 26°01' W 079°25'  
Track history (hours):
 
Tides and Currents Weather Stations Pressure Air Temp Water Temp Dewpoint Dewpoint Depression Visibility Wind Speed Wind Dir Waves Ship Positions

Norwegian Sky (Norway)

Operator: Norwegian Cruise Line

Last reported at 2019-Nov-20 03:27 UTC. Time now 2019-Nov-20 09:30 UTC.
Position N 25°19' W 079°47'.

Length 258 m; draft 8 m.

Type: Ship. MMSI: 308865000.

Date/timePositionNaut miles runAvg speedWind from/ knotsBaromVisibWave heightAir tempDewpointWater temp
2019-Nov-20 03:27N 25°19' W 079°47'1718.2
2019-Nov-20 02:30N 25°34' W 079°39'76 8.9
2019-Nov-19 18:00N 26°30' W 078°42'   270 / 121013.027.0 24.0
2019-Nov-17 04:02N 26°11' W 079°20'1 8.8
2019-Nov-17 03:58N 26°11' W 079°20'4 9.2
2019-Nov-17 03:30N 26°08' W 079°24'19 9.4
2019-Nov-17 01:30N 25°57' W 079°41'28 7.0
2019-Nov-16 21:29N 25°47' W 080°10'0 0.0
2019-Nov-16 20:29N 25°47' W 080°10'0 0.0
2019-Nov-16 19:29N 25°47' W 080°10'0 0.0
2019-Nov-16 18:59N 25°47' W 080°10'0 0.0
2019-Nov-16 18:29N 25°47' W 080°10'0 0.0
2019-Nov-16 17:29N 25°47' W 080°10'611.7
2019-Nov-16 17:00N 25°42' W 080°06'61231.8 290 / 111011.027.0 23.0
2019-Nov-16 16:59N 25°47' W 080°10'0 0.0
2019-Nov-16 15:59N 25°47' W 080°10'0 0.0
2019-Nov-16 15:29N 25°47' W 080°10'6 1.7
2019-Nov-16 12:00N 25°42' W 080°06'15 3.4 330 / 111013.010.8 19.015.920.0
2019-Nov-16 07:31N 25°51' W 079°52'9 8.7
2019-Nov-16 06:31N 25°55' W 079°44'26 8.6
2019-Nov-16 03:31N 26°07' W 079°19'4 8.7
2019-Nov-16 03:01N 26°10' W 079°15'8 8.3
2019-Nov-16 02:05N 26°12' W 079°07'70 7.6
2019-Nov-15 17:00N 25°48' W 077°54'58 2.5 230 / 81016.0 27.0
2019-Nov-14 18:00N 25°00' W 077°18'124 5.3 060 / 71017.010.8 28.0
2019-Nov-13 18:22N 26°02' W 079°17'410.0
2019-Nov-13 18:00N 25°59' W 079°19'2512.3
2019-Nov-13 16:00N 25°36' W 079°29'2012.8
2019-Nov-13 14:28N 25°17' W 079°34'130 6.3
2019-Nov-12 18:00N 24°30' W 081°48'114 6.3 130 / 81013.0 28.0
2019-Nov-12 00:00N 25°28' W 079°60'21 8.4
2019-Nov-11 21:30N 25°47' W 080°10'0 0.0
2019-Nov-11 21:00N 25°47' W 080°10'0 0.0
2019-Nov-11 18:30N 25°47' W 080°10'611.3
2019-Nov-11 18:00N 25°42' W 080°06'612.0 090 / 121017.0 27.0
2019-Nov-11 17:30N 25°47' W 080°10'0 0.0
2019-Nov-11 16:57N 25°47' W 080°10'0 0.0
2019-Nov-11 16:30N 25°47' W 080°10'0 0.0
2019-Nov-11 15:00N 25°47' W 080°10'0 0.0
2019-Nov-11 13:00N 25°47' W 080°10'0 0.0
2019-Nov-11 12:00N 25°47' W 080°10'0 0.0
2019-Nov-11 10:30N 25°47' W 080°10'10 6.4
2019-Nov-11 09:01N 25°47' W 079°59'20 6.8
2019-Nov-11 06:00N 25°36' W 079°40'4 8.5
2019-Nov-11 05:30N 25°32' W 079°39'8 0.9
2019-Nov-10 20:38N 25°28' W 079°32'17 8.0
2019-Nov-10 18:30N 25°44' W 079°36'19 7.6
2019-Nov-10 16:00N 26°01' W 079°25'  

Dump ship's entire track history